AFR457 SUMU-SAEZ
Flight info
| Callsign | AFR457 |
|---|---|
| Flight time | 0h 30m |
| Altitude | 24000 |
| Route | DAGUS A306 UGIMI UGIMI7B |
| Aircraft | B77W/H-SDE1E2E3FGHIJ2J3J4J5M1RWXY/LB1D1 |
Departure
| Time | 2026-04-23 12:02 |
|---|---|
| Airport | Carrasco General Cesáreo L. Berisso International Airport (SUMU) |
Arrival
| Time | 2026-04-23 12:33 |
|---|---|
| Airport | Ezeiza International Airport - Ministro Pistarini (SAEZ) |
| Time | Latitude | Longitude | Altitude | Speed | Heading |
|---|---|---|---|---|---|
| 2026-04-23 11:46 | -34.83711 | -56.01995 | 79 ft | 0 kts | 143° |
| 2026-04-23 11:50 | -34.83707 | -56.01998 | 79 ft | 2 kts | 143° |
| 2026-04-23 11:50 | -34.83695 | -56.02009 | 79 ft | 2 kts | 143° |
| 2026-04-23 11:50 | -34.83683 | -56.02020 | 80 ft | 2 kts | 143° |
| 2026-04-23 11:50 | -34.83666 | -56.02029 | 81 ft | 3 kts | 185° |
| 2026-04-23 11:51 | -34.83650 | -56.02021 | 81 ft | 2 kts | 225° |
| 2026-04-23 11:51 | -34.83644 | -56.02013 | 81 ft | 1 kts | 234° |
| 2026-04-23 11:51 | -34.83644 | -56.02012 | 81 ft | 0 kts | 234° |
| 2026-04-23 11:54 | -34.83644 | -56.02013 | 81 ft | 0 kts | 234° |
| 2026-04-23 11:54 | -34.83646 | -56.02016 | 81 ft | 1 kts | 234° |
| 2026-04-23 11:55 | -34.83659 | -56.02037 | 81 ft | 3 kts | 234° |
| 2026-04-23 11:55 | -34.83685 | -56.02080 | 80 ft | 9 kts | 234° |
| 2026-04-23 11:55 | -34.83727 | -56.02150 | 78 ft | 11 kts | 234° |
| 2026-04-23 11:55 | -34.83760 | -56.02203 | 77 ft | 12 kts | 231° |
| 2026-04-23 11:56 | -34.83840 | -56.02234 | 74 ft | 9 kts | 187° |
| 2026-04-23 11:56 | -34.83899 | -56.02246 | 71 ft | 6 kts | 191° |
| 2026-04-23 11:56 | -34.83937 | -56.02278 | 70 ft | 8 kts | 240° |
| 2026-04-23 11:56 | -34.83948 | -56.02336 | 69 ft | 7 kts | 269° |
| 2026-04-23 11:57 | -34.83948 | -56.02399 | 69 ft | 8 kts | 270° |
| 2026-04-23 11:57 | -34.83947 | -56.02477 | 69 ft | 11 kts | 271° |
| 2026-04-23 11:57 | -34.83946 | -56.02564 | 69 ft | 11 kts | 271° |
| 2026-04-23 11:57 | -34.83953 | -56.02651 | 69 ft | 11 kts | 258° |
| 2026-04-23 11:58 | -34.83985 | -56.02737 | 68 ft | 12 kts | 238° |
| 2026-04-23 11:58 | -34.84013 | -56.02829 | 67 ft | 12 kts | 265° |
| 2026-04-23 11:58 | -34.84012 | -56.02922 | 67 ft | 11 kts | 270° |
| 2026-04-23 11:58 | -34.84012 | -56.03012 | 67 ft | 11 kts | 268° |
| 2026-04-23 11:59 | -34.84031 | -56.03108 | 64 ft | 12 kts | 250° |
| 2026-04-23 11:59 | -34.84070 | -56.03206 | 63 ft | 13 kts | 242° |
| 2026-04-23 11:59 | -34.84116 | -56.03312 | 60 ft | 15 kts | 243° |
| 2026-04-23 11:59 | -34.84166 | -56.03430 | 57 ft | 16 kts | 241° |
| 2026-04-23 12:00 | -34.84220 | -56.03551 | 55 ft | 16 kts | 242° |
| 2026-04-23 12:00 | -34.84235 | -56.03640 | 53 ft | 3 kts | 300° |
| 2026-04-23 12:00 | -34.84216 | -56.03653 | 53 ft | 3 kts | 351° |
| 2026-04-23 12:00 | -34.84196 | -56.03650 | 54 ft | 2 kts | 30° |
| 2026-04-23 12:01 | -34.84175 | -56.03630 | 55 ft | 5 kts | 42° |
| 2026-04-23 12:01 | -34.84158 | -56.03606 | 55 ft | 6 kts | 50° |
| 2026-04-23 12:01 | -34.84053 | -56.03440 | 60 ft | 59 kts | 54° |
| 2026-04-23 12:01 | -34.83670 | -56.02806 | 78 ft | 133 kts | 53° |
| 2026-04-23 12:02 | -34.83012 | -56.01809 | 532 ft | 158 kts | 39° |
| 2026-04-23 12:02 | -34.81990 | -56.01329 | 1199 ft | 175 kts | 356° |
| 2026-04-23 12:02 | -34.80873 | -56.01797 | 1657 ft | 181 kts | 317° |
| 2026-04-23 12:02 | -34.80176 | -56.03073 | 1968 ft | 195 kts | 281° |
| 2026-04-23 12:03 | -34.80212 | -56.04711 | 2302 ft | 210 kts | 248° |
| 2026-04-23 12:03 | -34.81042 | -56.06146 | 2777 ft | 223 kts | 217° |
| 2026-04-23 12:03 | -34.82443 | -56.06921 | 3231 ft | 241 kts | 191° |
| 2026-04-23 12:03 | -34.84106 | -56.06766 | 3947 ft | 253 kts | 165° |
| 2026-04-23 12:04 | -34.85776 | -56.05954 | 4630 ft | 263 kts | 163° |
| 2026-04-23 12:04 | -34.87506 | -56.05608 | 5375 ft | 259 kts | 188° |
| 2026-04-23 12:04 | -34.89219 | -56.05997 | 6102 ft | 259 kts | 200° |
| 2026-04-23 12:04 | -34.90904 | -56.06657 | 6918 ft | 260 kts | 204° |
| 2026-04-23 12:05 | -34.92616 | -56.07404 | 7636 ft | 265 kts | 205° |
| 2026-04-23 12:05 | -34.94358 | -56.08176 | 8392 ft | 268 kts | 205° |
| 2026-04-23 12:05 | -34.96125 | -56.08960 | 9078 ft | 274 kts | 205° |
| 2026-04-23 12:05 | -34.97945 | -56.09766 | 9765 ft | 279 kts | 205° |
| 2026-04-23 12:06 | -34.99798 | -56.10600 | 10513 ft | 284 kts | 208° |
| 2026-04-23 12:06 | -35.01550 | -56.11879 | 11113 ft | 298 kts | 223° |
| 2026-04-23 12:06 | -35.03908 | -56.16303 | 12420 ft | 326 kts | 256° |
| 2026-04-23 12:07 | -35.04123 | -56.19133 | 13407 ft | 335 kts | 273° |
| 2026-04-23 12:07 | -35.03633 | -56.21986 | 14404 ft | 342 kts | 281° |
| 2026-04-23 12:07 | -35.03151 | -56.24816 | 15430 ft | 345 kts | 277° |
| 2026-04-23 12:07 | -35.02805 | -56.27766 | 16396 ft | 349 kts | 275° |
| 2026-04-23 12:08 | -35.02544 | -56.30735 | 17408 ft | 353 kts | 273° |
| 2026-04-23 12:08 | -35.02309 | -56.33799 | 18377 ft | 358 kts | 273° |
| 2026-04-23 12:08 | -35.02084 | -56.36853 | 19335 ft | 360 kts | 273° |
| 2026-04-23 12:08 | -35.01860 | -56.39945 | 20348 ft | 362 kts | 274° |
| 2026-04-23 12:09 | -35.01636 | -56.43034 | 21306 ft | 364 kts | 274° |
| 2026-04-23 12:09 | -35.01407 | -56.46192 | 22249 ft | 367 kts | 274° |
| 2026-04-23 12:09 | -35.01176 | -56.49372 | 23119 ft | 370 kts | 274° |
| 2026-04-23 12:09 | -35.00946 | -56.52526 | 23898 ft | 371 kts | 275° |
| 2026-04-23 12:10 | -35.00710 | -56.55749 | 24150 ft | 368 kts | 275° |
| 2026-04-23 12:10 | -35.00478 | -56.58923 | 24177 ft | 366 kts | 275° |
| 2026-04-23 12:10 | -35.00246 | -56.62068 | 24183 ft | 364 kts | 275° |
| 2026-04-23 12:10 | -35.00011 | -56.65247 | 24182 ft | 365 kts | 275° |
| 2026-04-23 12:11 | -34.99778 | -56.68392 | 24203 ft | 364 kts | 275° |
| 2026-04-23 12:11 | -34.99553 | -56.71429 | 24198 ft | 364 kts | 275° |
| 2026-04-23 12:11 | -34.99325 | -56.74482 | 24204 ft | 363 kts | 275° |
| 2026-04-23 12:11 | -34.99095 | -56.77555 | 24207 ft | 365 kts | 275° |
| 2026-04-23 12:12 | -34.98863 | -56.80644 | 24203 ft | 365 kts | 275° |
| 2026-04-23 12:12 | -34.98633 | -56.83696 | 24197 ft | 365 kts | 275° |
| 2026-04-23 12:12 | -34.98396 | -56.86826 | 24200 ft | 365 kts | 275° |
| 2026-04-23 12:12 | -34.98183 | -56.89903 | 24198 ft | 364 kts | 272° |
| 2026-04-23 12:13 | -34.98175 | -56.93106 | 24205 ft | 367 kts | 270° |
| 2026-04-23 12:13 | -34.98195 | -56.96303 | 24201 ft | 366 kts | 270° |
| 2026-04-23 12:13 | -34.98203 | -56.99459 | 24201 ft | 366 kts | 270° |
| 2026-04-23 12:13 | -34.98202 | -57.02557 | 24195 ft | 367 kts | 270° |
| 2026-04-23 12:14 | -34.98195 | -57.05680 | 24196 ft | 367 kts | 271° |
| 2026-04-23 12:14 | -34.98185 | -57.08773 | 24196 ft | 365 kts | 271° |
| 2026-04-23 12:14 | -34.98175 | -57.11808 | 23975 ft | 355 kts | 270° |
| 2026-04-23 12:14 | -34.98164 | -57.14798 | 23588 ft | 349 kts | 270° |
| 2026-04-23 12:15 | -34.98151 | -57.17741 | 23169 ft | 361 kts | 270° |
| 2026-04-23 12:15 | -34.98136 | -57.20858 | 22700 ft | 367 kts | 270° |
| 2026-04-23 12:15 | -34.98119 | -57.23980 | 22225 ft | 365 kts | 270° |
| 2026-04-23 12:15 | -34.98102 | -57.27109 | 21760 ft | 362 kts | 270° |
| 2026-04-23 12:16 | -34.98084 | -57.30170 | 21305 ft | 358 kts | 270° |
| 2026-04-23 12:16 | -34.98066 | -57.33257 | 20838 ft | 357 kts | 270° |
| 2026-04-23 12:16 | -34.98047 | -57.36314 | 20376 ft | 355 kts | 270° |
| 2026-04-23 12:16 | -34.98026 | -57.39330 | 19923 ft | 354 kts | 270° |
| 2026-04-23 12:17 | -34.98006 | -57.42322 | 19473 ft | 354 kts | 269° |
| 2026-04-23 12:17 | -34.97985 | -57.45279 | 19004 ft | 352 kts | 269° |
| 2026-04-23 12:17 | -34.97963 | -57.48265 | 18552 ft | 350 kts | 269° |
| 2026-04-23 12:17 | -34.97940 | -57.51271 | 18090 ft | 349 kts | 269° |
| 2026-04-23 12:18 | -34.97918 | -57.54237 | 17632 ft | 349 kts | 269° |
| 2026-04-23 12:18 | -34.97893 | -57.57211 | 17163 ft | 347 kts | 269° |
| 2026-04-23 12:18 | -34.97869 | -57.60136 | 16710 ft | 344 kts | 269° |
| 2026-04-23 12:18 | -34.97845 | -57.63026 | 16257 ft | 342 kts | 269° |
| 2026-04-23 12:19 | -34.97819 | -57.65921 | 15803 ft | 339 kts | 270° |
| 2026-04-23 12:19 | -34.97802 | -57.67816 | 15525 ft | 338 kts | 270° |
| 2026-04-23 12:19 | -34.97767 | -57.71690 | 14916 ft | 338 kts | 270° |
| 2026-04-23 12:19 | -34.97739 | -57.74577 | 14452 ft | 337 kts | 270° |
| 2026-04-23 12:20 | -34.97712 | -57.77446 | 13987 ft | 335 kts | 270° |
| 2026-04-23 12:20 | -34.97683 | -57.80263 | 13546 ft | 333 kts | 270° |
| 2026-04-23 12:20 | -34.97655 | -57.83084 | 13087 ft | 330 kts | 270° |
| 2026-04-23 12:20 | -34.97625 | -57.85992 | 12507 ft | 332 kts | 270° |
| 2026-04-23 12:21 | -34.97602 | -57.88804 | 11961 ft | 331 kts | 268° |
| 2026-04-23 12:21 | -34.97918 | -57.91537 | 11482 ft | 329 kts | 258° |
| 2026-04-23 12:21 | -34.98431 | -57.94246 | 10974 ft | 328 kts | 257° |
| 2026-04-23 12:21 | -34.98957 | -57.96929 | 10558 ft | 323 kts | 257° |
| 2026-04-23 12:22 | -34.99468 | -57.99535 | 10461 ft | 309 kts | 257° |
| 2026-04-23 12:22 | -34.99949 | -58.02007 | 10381 ft | 296 kts | 257° |
| 2026-04-23 12:22 | -35.00414 | -58.04409 | 10257 ft | 284 kts | 257° |
| 2026-04-23 12:22 | -35.00862 | -58.06720 | 10175 ft | 272 kts | 257° |
| 2026-04-23 12:23 | -35.01287 | -58.08920 | 10124 ft | 258 kts | 257° |
| 2026-04-23 12:23 | -35.01693 | -58.11022 | 9989 ft | 250 kts | 257° |
| 2026-04-23 12:23 | -35.02089 | -58.13080 | 9685 ft | 248 kts | 258° |
| 2026-04-23 12:23 | -35.02485 | -58.15133 | 9366 ft | 247 kts | 258° |
| 2026-04-23 12:24 | -35.02877 | -58.17171 | 9059 ft | 246 kts | 257° |
| 2026-04-23 12:24 | -35.03269 | -58.19210 | 8749 ft | 245 kts | 257° |
| 2026-04-23 12:24 | -35.03656 | -58.21224 | 8454 ft | 243 kts | 257° |
| 2026-04-23 12:24 | -35.04048 | -58.23267 | 8156 ft | 241 kts | 257° |
| 2026-04-23 12:25 | -35.04429 | -58.25256 | 7863 ft | 244 kts | 257° |
| 2026-04-23 12:25 | -35.04824 | -58.27316 | 7566 ft | 251 kts | 257° |
| 2026-04-23 12:25 | -35.05221 | -58.29390 | 7264 ft | 251 kts | 257° |
| 2026-04-23 12:25 | -35.05620 | -58.31477 | 6965 ft | 251 kts | 257° |
| 2026-04-23 12:26 | -35.06010 | -58.33517 | 6664 ft | 250 kts | 257° |
| 2026-04-23 12:26 | -35.06405 | -58.35590 | 6357 ft | 249 kts | 257° |
| 2026-04-23 12:26 | -35.06799 | -58.37657 | 6063 ft | 248 kts | 257° |
| 2026-04-23 12:26 | -35.07189 | -58.39707 | 5733 ft | 248 kts | 257° |
| 2026-04-23 12:27 | -35.07362 | -58.41785 | 5426 ft | 246 kts | 276° |
| 2026-04-23 12:27 | -35.06826 | -58.43735 | 5072 ft | 249 kts | 299° |
| 2026-04-23 12:27 | -35.05594 | -58.45224 | 4722 ft | 254 kts | 327° |
| 2026-04-23 12:27 | -35.03910 | -58.45882 | 4370 ft | 256 kts | 346° |
| 2026-04-23 12:28 | -35.02191 | -58.46304 | 3994 ft | 250 kts | 346° |
| 2026-04-23 12:28 | -35.00507 | -58.46741 | 3674 ft | 237 kts | 345° |
| 2026-04-23 12:28 | -34.98976 | -58.47163 | 3378 ft | 208 kts | 344° |
| 2026-04-23 12:28 | -34.97646 | -58.47567 | 3131 ft | 184 kts | 342° |
| 2026-04-23 12:29 | -34.96475 | -58.47963 | 2903 ft | 165 kts | 341° |
| 2026-04-23 12:29 | -34.95391 | -58.48323 | 2608 ft | 158 kts | 342° |
| 2026-04-23 12:29 | -34.94367 | -58.48689 | 2366 ft | 152 kts | 340° |
| 2026-04-23 12:29 | -34.93398 | -58.49044 | 2159 ft | 149 kts | 341° |
| 2026-04-23 12:30 | -34.92409 | -58.49384 | 1972 ft | 147 kts | 342° |
| 2026-04-23 12:30 | -34.91441 | -58.49718 | 1765 ft | 147 kts | 342° |
| 2026-04-23 12:30 | -34.90463 | -58.50056 | 1561 ft | 148 kts | 343° |
| 2026-04-23 12:30 | -34.89464 | -58.50397 | 1366 ft | 148 kts | 343° |
| 2026-04-23 12:31 | -34.88496 | -58.50731 | 1160 ft | 148 kts | 342° |
| 2026-04-23 12:31 | -34.87571 | -58.51064 | 970 ft | 146 kts | 343° |
| 2026-04-23 12:31 | -34.86621 | -58.51385 | 782 ft | 145 kts | 343° |
| 2026-04-23 12:31 | -34.85657 | -58.51723 | 609 ft | 145 kts | 342° |
| 2026-04-23 12:32 | -34.84692 | -58.52056 | 397 ft | 142 kts | 343° |
| 2026-04-23 12:32 | -34.83738 | -58.52383 | 183 ft | 140 kts | 343° |
| 2026-04-23 12:32 | -34.82811 | -58.52706 | 78 ft | 125 kts | 343° |
| 2026-04-23 12:32 | -34.82126 | -58.52946 | 76 ft | 81 kts | 344° |
| 2026-04-23 12:33 | -34.81735 | -58.53080 | 74 ft | 39 kts | 344° |
| 2026-04-23 12:33 | -34.81569 | -58.53153 | 74 ft | 20 kts | 316° |
| 2026-04-23 12:33 | -34.81495 | -58.53286 | 77 ft | 17 kts | 298° |
| 2026-04-23 12:33 | -34.81470 | -58.53338 | 78 ft | 0 kts | 298° |
| 2026-04-23 12:34 | -34.81470 | -58.53339 | 78 ft | 0 kts | 298° |
| 2026-04-23 12:34 | -34.81467 | -58.53346 | 78 ft | 1 kts | 298° |
| 2026-04-23 12:34 | -34.81448 | -58.53387 | 80 ft | 5 kts | 298° |
| 2026-04-23 12:35 | -34.81433 | -58.53419 | 81 ft | 3 kts | 298° |
| 2026-04-23 12:35 | -34.81420 | -58.53450 | 82 ft | 5 kts | 298° |
| 2026-04-23 12:35 | -34.81404 | -58.53485 | 84 ft | 4 kts | 298° |
| 2026-04-23 12:35 | -34.81390 | -58.53519 | 85 ft | 5 kts | 292° |
| 2026-04-23 12:36 | -34.81392 | -58.53574 | 86 ft | 6 kts | 239° |
| 2026-04-23 12:36 | -34.81422 | -58.53601 | 87 ft | 4 kts | 206° |
| 2026-04-23 12:36 | -34.81445 | -58.53613 | 88 ft | 2 kts | 201° |
| 2026-04-23 12:36 | -34.81480 | -58.53632 | 89 ft | 8 kts | 207° |
| 2026-04-23 12:37 | -34.81528 | -58.53661 | 90 ft | 6 kts | 210° |
| 2026-04-23 12:37 | -34.81564 | -58.53695 | 90 ft | 6 kts | 220° |
| 2026-04-23 12:37 | -34.81601 | -58.53735 | 90 ft | 6 kts | 223° |
| 2026-04-23 12:37 | -34.81636 | -58.53775 | 90 ft | 7 kts | 222° |
| 2026-04-23 12:38 | -34.81659 | -58.53815 | 91 ft | 3 kts | 276° |
| 2026-04-23 12:38 | -34.81646 | -58.53833 | 91 ft | 2 kts | 317° |
| 2026-04-23 12:38 | -34.81633 | -58.53849 | 91 ft | 2 kts | 317° |
| 2026-04-23 12:38 | -34.81616 | -58.53867 | 91 ft | 3 kts | 319° |
| 2026-04-23 12:39 | -34.81596 | -58.53888 | 91 ft | 4 kts | 319° |
| 2026-04-23 12:39 | -34.81571 | -58.53914 | 91 ft | 4 kts | 319° |
| 2026-04-23 12:39 | -34.81562 | -58.53923 | 91 ft | 1 kts | 319° |
| 2026-04-23 12:39 | -34.81561 | -58.53925 | 91 ft | 0 kts | 319° |